Terminal Aerodrome Forecast
Issued by NWS Bismarck, ND

Home | Current Version | Previous Version | Graphics & Text | Print | Product List | Glossary On
Versions: 1 2 3 4 5 6 7 8 9 10 11 12 13 14 15 16 17 18
000
FTUS43 KBIS 191400 AAA
TAFISN
TAF AMD
KISN 191413Z 1914/2012 28013KT P6SM FEW160
     FM192000 30017G26KT P6SM VCTS SCT110CB
     FM200000 32014G23KT P6SM BKN060
     FM200200 31010KT P6SM SCT110=

USA.gov is the U.S. government's official web portal to all federal, state and local government web resources and services.